Terminal Aerodrome Forecast
Issued by NWS Medford, OR

Home | Current Version | Previous Version | Text Only | Print | Product List | Glossary On
Versions: 1 2 3 4 5 6 7 8 9 10 11 12 13 14 15
110
FTUS46 KMFR 271731
TAFMFR
TAF
KMFR 271731Z 2718/2818 32006KT P6SM VCSH BKN050
     FM280300 00000KT P6SM SCT060=

USA.gov is the U.S. government's official web portal to all federal, state and local government web resources and services.